createdAt,value
2018-03-02T00:00:57.874Z,10.50
2018-03-02T00:04:01.929Z,8.67
2018-03-02T00:07:06.774Z,11.20
2018-03-02T00:10:10.066Z,11.90
2018-03-02T00:13:14.126Z,9.35
2018-03-02T00:16:18.254Z,11.57
2018-03-02T00:19:22.295Z,8.53
2018-03-02T00:22:25.582Z,13.80
2018-03-02T00:25:28.902Z,12.13
2018-03-02T00:28:32.920Z,9.73
2018-03-02T00:31:37.654Z,11.43
2018-03-02T00:34:40.923Z,8.77
2018-03-02T00:37:44.206Z,8.30
2018-03-02T00:40:48.250Z,12.07
2018-03-02T00:43:51.529Z,8.53
2018-03-02T00:46:54.805Z,9.83
2018-03-02T00:49:58.879Z,12.43
2018-03-02T00:53:02.161Z,10.57
2018-03-02T00:56:05.430Z,10.27
2018-03-02T00:59:08.723Z,9.90
2018-03-02T01:02:12.026Z,8.90
2018-03-02T01:05:15.426Z,9.97
2018-03-02T01:08:18.836Z,11.67
2018-03-02T01:11:22.298Z,11.13
2018-03-02T01:14:25.650Z,9.18
2018-03-02T01:17:29.742Z,10.60
2018-03-02T01:20:33.050Z,12.03
2018-03-02T01:23:36.337Z,9.77
2018-03-02T01:26:39.603Z,12.90
2018-03-02T01:29:42.900Z,10.87
2018-03-02T01:32:46.244Z,9.03
2018-03-02T01:35:49.534Z,10.55
2018-03-02T01:38:53.095Z,14.17
2018-03-02T01:41:56.459Z,9.23
2018-03-02T01:44:59.733Z,8.33
2018-03-02T01:48:03.005Z,9.73
2018-03-02T01:51:07.045Z,9.15
2018-03-02T01:54:11.181Z,13.82
2018-03-02T01:57:14.453Z,11.93
2018-03-02T02:00:18.466Z,6.63
2018-03-02T02:03:21.750Z,10.35
2018-03-02T02:06:25.803Z,9.83
2018-03-02T02:09:29.089Z,11.38
2018-03-02T02:12:32.356Z,14.23
2018-03-02T02:15:36.453Z,12.33
2018-03-02T02:18:39.730Z,9.83
2018-03-02T02:21:43.769Z,11.37
2018-03-02T02:24:47.060Z,15.03
2018-03-02T02:27:50.329Z,10.93
2018-03-02T02:30:53.611Z,11.10
2018-03-02T02:33:56.903Z,9.57
2018-03-02T02:37:00.169Z,9.90
2018-03-02T02:40:04.543Z,9.05
2018-03-02T02:43:07.813Z,11.03
2018-03-02T02:46:13.104Z,11.67
2018-03-02T02:49:16.396Z,10.40
2018-03-02T02:52:19.677Z,14.03
2018-03-02T02:55:22.989Z,11.07
2018-03-02T02:58:26.261Z,14.50
2018-03-02T03:01:29.568Z,13.33
2018-03-02T03:04:32.853Z,9.40
2018-03-02T03:07:36.124Z,13.47
2018-03-02T03:10:40.225Z,17.83
2018-03-02T03:13:43.513Z,9.40
2018-03-02T03:16:46.783Z,11.33
2018-03-02T03:19:50.071Z,9.57
2018-03-02T03:22:53.341Z,11.30
2018-03-02T03:25:56.618Z,10.43
2018-03-02T03:29:00.665Z,11.50
2018-03-02T03:32:03.941Z,14.80
2018-03-02T03:35:07.219Z,14.70
2018-03-02T03:38:11.262Z,11.32
2018-03-02T03:41:14.562Z,10.88
2018-03-02T03:44:17.943Z,12.88
2018-03-02T03:47:21.978Z,11.13
2018-03-02T03:50:25.266Z,12.77
2018-03-02T03:53:29.304Z,10.37
2018-03-02T03:56:32.679Z,12.27
2018-03-02T03:59:35.976Z,11.68
2018-03-02T04:02:40.033Z,12.33
2018-03-02T04:05:44.105Z,12.27
2018-03-02T04:08:47.442Z,12.00
2018-03-02T04:11:50.717Z,14.10
2018-03-02T04:14:53.996Z,16.67
2018-03-02T04:17:58.042Z,11.73
2018-03-02T04:21:01.325Z,12.95
2018-03-02T04:24:04.592Z,10.87
2018-03-02T04:27:08.645Z,12.07
2018-03-02T04:30:11.941Z,13.03
2018-03-02T04:33:15.214Z,13.77
2018-03-02T04:36:18.500Z,11.87
2018-03-02T04:39:22.557Z,13.90
2018-03-02T04:42:25.820Z,14.43
2018-03-02T04:45:30.095Z,16.52
2018-03-02T04:48:33.480Z,13.60
2018-03-02T04:51:36.762Z,11.13
2018-03-02T04:54:40.065Z,11.97
2018-03-02T04:57:43.361Z,11.10
2018-03-02T05:00:47.342Z,11.03
2018-03-02T05:03:51.378Z,11.13
2018-03-02T05:06:54.784Z,13.53
2018-03-02T05:09:58.074Z,16.43
2018-03-02T05:13:01.355Z,14.07
2018-03-02T05:16:06.453Z,15.50
2018-03-02T05:19:10.478Z,15.83
2018-03-02T05:22:13.769Z,13.57
2018-03-02T05:25:17.162Z,16.63
2018-03-02T05:28:25.849Z,9.70
2018-03-02T05:31:29.775Z,12.70
2018-03-02T05:34:33.191Z,13.20
2018-03-02T05:37:37.509Z,13.03
2018-03-02T05:40:40.909Z,12.33
2018-03-02T05:43:44.210Z,16.53
2018-03-02T05:46:47.488Z,13.50
2018-03-02T05:49:51.577Z,16.50
2018-03-02T05:52:54.849Z,14.90
2018-03-02T05:55:58.136Z,16.60
2018-03-02T05:59:01.453Z,15.85
2018-03-02T06:02:04.750Z,13.32
2018-03-02T06:05:08.104Z,12.20
2018-03-02T06:08:12.199Z,12.90
2018-03-02T06:11:15.513Z,16.70
2018-03-02T06:14:19.552Z,16.03
2018-03-02T06:17:22.845Z,14.87
2018-03-02T06:20:26.135Z,12.93
2018-03-02T06:23:30.184Z,10.50
2018-03-02T06:26:33.516Z,14.67
2018-03-02T06:29:36.800Z,13.87
2018-03-02T06:32:40.120Z,16.40
2018-03-02T06:35:43.421Z,15.20
2018-03-02T06:38:49.448Z,14.76
2018-03-02T06:41:52.722Z,13.50
2018-03-02T06:44:56.014Z,13.60
2018-03-02T06:47:59.292Z,12.70
2018-03-02T06:51:03.342Z,12.60
2018-03-02T06:54:06.633Z,16.40
2018-03-02T06:57:09.928Z,17.43
2018-03-02T07:00:13.257Z,15.03
2018-03-02T07:03:16.529Z,16.83
2018-03-02T07:06:19.805Z,16.57
2018-03-02T07:09:23.091Z,17.98
2018-03-02T07:12:27.926Z,15.23
2018-03-02T07:15:32.554Z,17.03
2018-03-02T07:18:36.583Z,15.90
2018-03-02T07:21:39.863Z,15.93
2018-03-02T07:24:43.905Z,16.73
2018-03-02T07:27:47.275Z,15.77
2018-03-02T07:30:51.321Z,17.17
2018-03-02T07:33:54.596Z,15.00
2018-03-02T07:36:57.876Z,15.67
2018-03-02T07:40:01.956Z,17.63
2018-03-02T07:43:05.262Z,16.37
2018-03-02T07:46:08.567Z,17.83
2018-03-02T07:49:11.847Z,13.13
2018-03-02T07:52:15.117Z,17.77
2018-03-02T07:55:19.662Z,14.10
2018-03-02T07:58:22.961Z,15.40
2018-03-02T08:01:26.934Z,13.07
2018-03-02T08:04:30.977Z,18.37
2018-03-02T08:07:34.262Z,17.20
2018-03-02T08:10:37.644Z,12.17
2018-03-02T08:13:41.672Z,17.10
2018-03-02T08:16:44.958Z,16.03
2018-03-02T08:19:48.987Z,16.12
2018-03-02T08:22:52.277Z,16.07
2018-03-02T08:25:55.577Z,14.56
2018-03-02T08:28:58.858Z,15.30
2018-03-02T08:32:03.081Z,14.93
2018-03-02T08:35:07.199Z,18.00
2018-03-02T08:38:12.233Z,18.23
2018-03-02T08:41:16.286Z,17.90
2018-03-02T08:44:19.560Z,19.40
2018-03-02T08:47:22.870Z,16.80
2018-03-02T08:50:26.246Z,19.95
2018-03-02T08:53:30.306Z,18.53
2018-03-02T08:56:33.601Z,17.10
2018-03-02T08:59:37.688Z,16.40
2018-03-02T09:02:41.717Z,20.50
2018-03-02T09:05:44.998Z,18.03
2018-03-02T09:08:48.288Z,19.60
2018-03-02T09:11:52.837Z,19.05
2018-03-02T09:14:56.661Z,18.25
2018-03-02T09:17:59.948Z,17.30
2018-03-02T09:21:03.276Z,19.52
2018-03-02T09:24:06.563Z,20.47
2018-03-02T09:27:10.638Z,15.83
2018-03-02T09:30:13.929Z,20.20
2018-03-02T09:33:18.004Z,19.80
2018-03-02T09:36:21.357Z,17.13
2018-03-02T09:39:24.637Z,20.03
2018-03-02T09:42:28.741Z,19.70
2018-03-02T09:45:32.784Z,16.35
2018-03-02T09:48:36.082Z,17.17
2018-03-02T09:51:39.470Z,19.80
2018-03-02T09:54:43.508Z,17.67
2018-03-02T09:57:46.785Z,16.47
2018-03-02T10:00:50.100Z,18.80
2018-03-02T10:03:53.785Z,22.83
2018-03-02T10:06:57.821Z,19.97
2018-03-02T10:10:01.101Z,17.17
2018-03-02T10:13:04.596Z,18.97
2018-03-02T10:16:08.637Z,20.80
2018-03-02T10:19:11.915Z,19.73
2018-03-02T10:22:15.182Z,20.65
2018-03-02T10:25:18.493Z,20.40
2018-03-02T10:28:22.534Z,17.07
2018-03-02T10:31:25.853Z,20.30
2018-03-02T10:34:29.120Z,17.73
2018-03-02T10:37:32.682Z,18.50
2018-03-02T10:40:36.596Z,21.30
2018-03-02T10:43:39.900Z,17.90
2018-03-02T10:46:43.192Z,21.50
2018-03-02T10:49:46.468Z,19.40
2018-03-02T10:52:49.733Z,18.23
2018-03-02T10:55:53.029Z,22.27
2018-03-02T10:58:56.297Z,21.23
2018-03-02T11:02:05.797Z,18.70
2018-03-02T11:05:11.047Z,18.50
2018-03-02T11:08:14.327Z,18.70
2018-03-02T11:11:17.620Z,21.37
2018-03-02T11:14:20.938Z,20.88
2018-03-02T11:17:24.234Z,22.45
2018-03-02T11:20:27.656Z,20.57
2018-03-02T11:23:30.924Z,22.05
2018-03-02T11:26:34.201Z,17.33
2018-03-02T11:29:37.477Z,19.97
2018-03-02T11:32:42.061Z,21.13
2018-03-02T11:35:45.332Z,19.63
2018-03-02T11:38:48.757Z,21.43
2018-03-02T11:41:52.045Z,20.33
2018-03-02T11:44:55.313Z,20.55
2018-03-02T11:47:58.641Z,23.17
2018-03-02T11:51:01.909Z,20.52
2018-03-02T11:54:05.177Z,21.67
2018-03-02T11:57:09.221Z,19.97
2018-03-02T12:00:12.493Z,21.57
2018-03-02T12:03:16.543Z,20.43
2018-03-02T12:06:19.980Z,23.03
2018-03-02T12:09:23.268Z,20.63
2018-03-02T12:12:26.569Z,20.93
2018-03-02T12:15:29.838Z,21.47
2018-03-02T12:18:33.123Z,21.42
2018-03-02T12:21:36.418Z,22.73
2018-03-02T12:24:39.807Z,21.60
2018-03-02T12:27:43.930Z,23.23
2018-03-02T12:30:47.210Z,22.73
2018-03-02T12:33:51.259Z,23.07
2018-03-02T12:36:54.629Z,22.93
2018-03-02T12:39:59.917Z,23.50
2018-03-02T12:43:03.225Z,22.93
2018-03-02T12:46:06.589Z,20.12
2018-03-02T12:49:09.919Z,21.10
2018-03-02T12:52:13.989Z,21.23
2018-03-02T12:55:18.028Z,22.37
2018-03-02T12:58:21.437Z,23.00
2018-03-02T13:01:24.720Z,20.17
2018-03-02T13:04:28.110Z,24.20
2018-03-02T13:07:31.418Z,20.37
2018-03-02T13:10:34.716Z,19.25
2018-03-02T13:13:38.198Z,19.77
2018-03-02T13:16:42.320Z,22.80
2018-03-02T13:19:46.399Z,20.47
2018-03-02T13:22:49.685Z,20.77
2018-03-02T13:25:52.966Z,20.73
2018-03-02T13:28:56.251Z,19.00
2018-03-02T13:31:59.523Z,20.83
2018-03-02T13:35:11.643Z,22.07
2018-03-02T13:38:14.929Z,19.70
2018-03-02T13:41:35.864Z,21.23
2018-03-02T13:44:39.232Z,21.67
2018-03-02T13:51:48.030Z,21.60
2018-03-02T13:54:51.318Z,21.85
2018-03-02T13:58:02.553Z,21.37
2018-03-02T14:01:05.816Z,22.10
2018-03-02T14:04:26.882Z,22.30
2018-03-02T14:07:30.155Z,23.00
2018-03-02T14:10:34.209Z,20.23
2018-03-02T14:13:37.509Z,23.27
2018-03-02T14:16:40.859Z,22.07
2018-03-02T14:19:44.929Z,20.30
2018-03-02T14:22:48.302Z,24.00
2018-03-02T14:25:52.352Z,21.67
2018-03-02T14:28:55.625Z,21.77
2018-03-02T14:31:58.910Z,29.23
2018-03-02T14:35:04.217Z,26.53
2018-03-02T14:38:07.481Z,25.43
2018-03-02T14:41:10.811Z,25.97
2018-03-02T14:44:14.075Z,29.53
2018-03-02T14:47:17.384Z,26.05
2018-03-02T14:50:20.670Z,22.77
2018-03-02T14:53:24.075Z,24.97
2018-03-02T14:56:27.561Z,24.67
2018-03-02T14:59:30.912Z,24.12
2018-03-02T15:02:35.789Z,21.67
2018-03-02T15:05:39.828Z,20.93
2018-03-02T15:08:43.138Z,20.13
2018-03-02T15:11:46.396Z,23.20
2018-03-02T15:14:49.729Z,22.13
2018-03-02T15:17:53.046Z,20.87
2018-03-02T15:20:56.302Z,21.23
2018-03-02T15:23:59.584Z,23.17
2018-03-02T15:27:02.877Z,24.58
2018-03-02T15:30:06.171Z,24.48
2018-03-02T15:33:10.191Z,22.10
2018-03-02T15:36:13.509Z,25.47
2018-03-02T15:39:16.830Z,23.17
2018-03-02T15:42:20.100Z,21.47
2018-03-02T15:45:23.814Z,18.03
2018-03-02T15:48:27.760Z,18.63
2018-03-02T15:51:31.850Z,20.63
2018-03-02T15:54:35.132Z,22.10
2018-03-02T15:57:38.433Z,19.03
2018-03-02T16:00:43.445Z,20.92
2018-03-02T16:03:47.494Z,20.97
2018-03-02T16:06:50.865Z,22.07
2018-03-02T16:09:54.953Z,20.77
2018-03-02T16:12:58.257Z,23.50
2018-03-02T16:16:02.310Z,21.30
2018-03-02T16:19:05.626Z,21.17
2018-03-02T16:22:08.908Z,23.80
2018-03-02T16:25:12.210Z,26.00
2018-03-02T16:28:15.512Z,24.08
2018-03-02T16:31:18.821Z,25.13
2018-03-02T16:34:22.121Z,26.03
2018-03-02T16:37:25.405Z,24.03
2018-03-02T16:40:28.690Z,23.70
2018-03-02T16:43:32.085Z,26.48
2018-03-02T16:46:35.459Z,29.10
2018-03-02T16:49:39.364Z,24.50
2018-03-02T16:52:42.631Z,26.93
2018-03-02T16:55:45.920Z,24.40
2018-03-02T16:58:49.208Z,26.03
2018-03-02T17:01:52.493Z,27.50
2018-03-02T17:04:55.761Z,24.70
2018-03-02T17:07:59.804Z,26.67
2018-03-02T17:11:03.168Z,28.58
2018-03-02T17:14:06.427Z,24.33
2018-03-02T17:17:11.132Z,23.20
2018-03-02T17:20:14.407Z,27.80
2018-03-02T17:23:19.126Z,26.57
2018-03-02T17:26:22.702Z,26.73
2018-03-02T17:29:26.928Z,27.40
2018-03-02T17:32:30.197Z,31.20
2018-03-02T17:35:33.498Z,23.70
2018-03-02T17:38:36.770Z,26.50
2018-03-02T17:41:41.322Z,24.48
2018-03-02T17:44:44.605Z,26.83
2018-03-02T17:47:47.882Z,27.03
2018-03-02T17:50:52.772Z,26.60
2018-03-02T17:53:57.109Z,26.35
2018-03-02T17:57:00.394Z,27.13
2018-03-02T18:00:04.561Z,25.57
2018-03-02T18:03:07.850Z,28.83
2018-03-02T18:06:13.853Z,24.66
2018-03-02T18:09:17.155Z,26.65
2018-03-02T18:12:21.198Z,24.85
2018-03-02T18:15:24.501Z,26.87
2018-03-02T18:18:27.798Z,25.83
2018-03-02T18:21:31.088Z,27.03
2018-03-02T18:24:34.438Z,26.47
2018-03-02T18:27:37.667Z,27.43
2018-03-02T18:30:42.371Z,27.75
2018-03-02T18:33:45.744Z,29.27
2018-03-02T18:36:49.790Z,29.43
2018-03-02T18:39:53.086Z,28.27
2018-03-02T18:42:56.365Z,27.52
2018-03-02T18:45:59.636Z,30.50
2018-03-02T18:49:03.718Z,27.08
2018-03-02T18:52:07.003Z,26.97
2018-03-02T18:55:10.330Z,28.67
2018-03-02T18:58:13.681Z,30.57
2018-03-02T19:01:16.988Z,26.33
2018-03-02T19:04:20.333Z,29.87
2018-03-02T19:07:25.168Z,28.90
2018-03-02T19:10:29.422Z,26.73
2018-03-02T19:13:32.707Z,27.50
2018-03-02T19:16:36.750Z,28.17
2018-03-02T19:19:40.063Z,30.27
2018-03-02T19:22:44.112Z,28.08
2018-03-02T19:25:47.389Z,27.07
2018-03-02T19:28:50.666Z,29.07
2018-03-02T19:31:53.929Z,27.97
2018-03-02T19:34:57.982Z,26.57
2018-03-02T19:38:01.293Z,27.93
2018-03-02T19:41:04.636Z,31.02
2018-03-02T19:44:08.008Z,32.15
2018-03-02T19:47:11.553Z,34.60
2018-03-02T19:50:15.588Z,32.57
2018-03-02T19:53:18.877Z,32.37
2018-03-02T19:56:22.166Z,33.37
2018-03-02T19:59:25.945Z,30.13
2018-03-02T20:02:29.215Z,32.07
2018-03-02T20:05:32.522Z,32.40
2018-03-02T20:08:35.804Z,30.10
2018-03-02T20:11:39.864Z,32.13
2018-03-02T20:14:43.921Z,31.57
2018-03-02T20:17:47.217Z,30.73
2018-03-02T20:20:50.566Z,29.47
2018-03-02T20:23:53.899Z,30.57
2018-03-02T20:26:57.187Z,30.03
2018-03-02T20:30:01.237Z,29.83
2018-03-02T20:33:04.667Z,30.03
2018-03-02T20:36:07.971Z,29.50
2018-03-02T20:39:11.253Z,29.80
2018-03-02T20:42:14.745Z,28.53
2018-03-02T20:45:18.017Z,29.13
2018-03-02T20:48:21.336Z,31.87
2018-03-02T20:51:24.722Z,30.57
2018-03-02T20:54:28.008Z,31.50
2018-03-02T20:57:31.366Z,31.37
2018-03-02T21:00:34.638Z,28.73
2018-03-02T21:03:38.696Z,30.17
2018-03-02T21:06:42.729Z,29.27
2018-03-02T21:09:46.005Z,28.07
2018-03-02T21:12:50.062Z,30.70
2018-03-02T21:15:54.697Z,29.73
2018-03-02T21:18:58.064Z,29.37
2018-03-02T21:22:01.409Z,29.80
2018-03-02T21:25:04.760Z,27.93
2018-03-02T21:28:08.178Z,27.23
2018-03-02T21:31:11.585Z,31.23
2018-03-02T21:34:18.976Z,28.03
2018-03-02T21:37:18.317Z,29.40
2018-03-02T21:40:21.641Z,30.33
2018-03-02T21:43:24.961Z,27.63
2018-03-02T21:46:28.303Z,29.43
2018-03-02T21:49:31.867Z,28.63
2018-03-02T21:52:35.143Z,29.23
2018-03-02T21:55:39.228Z,30.40
2018-03-02T21:58:42.585Z,30.93
2018-03-02T22:01:45.869Z,32.93
2018-03-02T22:04:49.954Z,30.20
2018-03-02T22:07:53.288Z,28.87
2018-03-02T22:10:56.738Z,32.53
2018-03-02T22:14:00.019Z,30.67
2018-03-02T22:17:03.925Z,31.17
2018-03-02T22:20:07.306Z,30.07
2018-03-02T22:23:10.593Z,31.57
2018-03-02T22:26:14.044Z,31.33
2018-03-02T22:29:17.328Z,30.33
2018-03-02T22:32:20.609Z,33.10
2018-03-02T22:35:24.609Z,31.37
2018-03-02T22:38:27.978Z,31.10
2018-03-02T22:41:32.147Z,30.03
2018-03-02T22:44:35.427Z,29.77
2018-03-02T22:47:38.746Z,30.47
2018-03-02T22:50:42.033Z,30.70
2018-03-02T22:53:45.313Z,33.60
2018-03-02T22:56:48.709Z,33.03
2018-03-02T22:59:51.977Z,32.00
2018-03-02T23:03:10.364Z,31.03
2018-03-02T23:06:13.724Z,30.23
2018-03-02T23:09:17.020Z,34.63
2018-03-02T23:12:20.995Z,32.80
2018-03-02T23:15:24.302Z,32.07
2018-03-02T23:18:27.718Z,32.17
2018-03-02T23:21:30.992Z,34.00
2018-03-02T23:24:34.259Z,32.33
2018-03-02T23:27:38.367Z,30.93
2018-03-02T23:30:41.597Z,34.63
2018-03-02T23:33:44.974Z,33.57
2018-03-02T23:36:49.008Z,32.97
2018-03-02T23:39:52.293Z,36.70
2018-03-02T23:42:56.442Z,33.30
2018-03-02T23:45:59.743Z,33.43
2018-03-02T23:49:03.012Z,33.13
2018-03-02T23:52:06.298Z,34.13
2018-03-02T23:55:10.342Z,34.97
2018-03-02T23:58:13.637Z,34.80
